Time;durP1;ratioP1;P1;durP2;ratioP2;P2;SDS_P1;SDS_P2;PMS_P1;PMS_P2;Temp;Humidity;BMP_temperature;BMP_pressure;BME280_temperature;BME280_humidity;BME280_pressure;Samples;Min_cycle;Max_cycle;Signal;HPM_P1;HPM_P2
2022/10/11 00:01:18;;;;;;;21.40;5.95;;;;;;;;;;4974750;28;20054;-66
2022/10/11 00:03:43;;;;;;;17.27;6.32;;;;;;;;;;4982074;28;20019;-65
2022/10/11 00:06:08;;;;;;;19.17;5.33;;;;;;;;;;4986594;28;20022;-66
2022/10/11 00:08:33;;;;;;;18.23;5.45;;;;;;;;;;4984634;28;20272;-65
2022/10/11 00:11:00;;;;;;;14.50;6.13;;;;;;;;;;4984427;28;20027;-67
2022/10/11 00:13:26;;;;;;;20.00;6.03;;;;;;;;;;4982132;28;20030;-65
2022/10/11 00:15:51;;;;;;;17.45;5.82;;;;;;;;;;4990676;28;20037;-65
2022/10/11 00:18:16;;;;;;;16.52;5.63;;;;;;;;;;4981302;28;20678;-64
2022/10/11 00:20:41;;;;;;;18.33;5.60;;;;;;;;;;4985009;28;20023;-66
2022/10/11 00:23:06;;;;;;;24.13;5.87;;;;;;;;;;4970954;28;20029;-64
2022/10/11 00:25:32;;;;;;;15.68;5.53;;;;;;;;;;4984167;28;20375;-65
2022/10/11 00:27:57;;;;;;;21.50;4.78;;;;;;;;;;4980995;28;20599;-65
2022/10/11 00:30:22;;;;;;;20.08;4.85;;;;;;;;;;4978327;28;20022;-66
2022/10/11 00:32:49;;;;;;;20.73;4.75;;;;;;;;;;4980399;28;20022;-66
2022/10/11 00:35:14;;;;;;;19.02;4.55;;;;;;;;;;4984324;28;20018;-64
2022/10/11 00:37:39;;;;;;;16.42;4.47;;;;;;;;;;4981173;28;20567;-66
2022/10/11 00:40:06;;;;;;;22.67;4.60;;;;;;;;;;4989879;28;20022;-65
2022/10/11 00:42:31;;;;;;;17.58;4.00;;;;;;;;;;4990142;28;20337;-65
2022/10/11 00:45:15;;;;;;;14.50;4.10;;;;;;;;;;4986933;28;20027;-65
2022/10/11 00:47:40;;;;;;;13.75;3.40;;;;;;;;;;4982169;28;20027;-66
2022/10/11 00:50:07;;;;;;;13.57;3.35;;;;;;;;;;4976796;28;20081;-64
2022/10/11 00:52:39;;;;;;;19.13;3.95;;;;;;;;;;4990179;28;20024;-66
2022/10/11 00:55:06;;;;;;;14.05;3.42;;;;;;;;;;4976384;28;20026;-66
2022/10/11 00:57:33;;;;;;;13.57;3.88;;;;;;;;;;4976285;28;20019;-66
2022/10/11 00:59:58;;;;;;;12.52;3.25;;;;;;;;;;4977550;28;20030;-64
2022/10/11 01:02:24;;;;;;;17.63;3.50;;;;;;;;;;4989991;28;20024;-67
2022/10/11 01:04:50;;;;;;;16.23;2.60;;;;;;;;;;4984632;28;20440;-65
2022/10/11 01:07:18;;;;;;;9.20;2.97;;;;;;;;;;4989679;28;20026;-67
2022/10/11 01:09:43;;;;;;;15.43;2.97;;;;;;;;;;4972348;28;20084;-66
2022/10/11 01:12:28;;;;;;;14.60;3.00;;;;;;;;;;4989209;28;20101;-63
2022/10/11 01:14:54;;;;;;;17.33;2.55;;;;;;;;;;4989038;28;20201;-67
2022/10/11 01:17:45;;;;;;;17.85;2.70;;;;;;;;;;4988940;28;20619;-65
2022/10/11 01:20:17;;;;;;;9.25;2.50;;;;;;;;;;4941695;28;20760;-65
2022/10/11 01:23:01;;;;;;;11.85;1.95;;;;;;;;;;4969781;28;20033;-66
2022/10/11 01:25:29;;;;;;;17.83;3.58;;;;;;;;;;4982418;28;20362;-66
2022/10/11 01:28:00;;;;;;;12.48;2.67;;;;;;;;;;4978987;28;20018;-66
2022/10/11 01:30:27;;;;;;;11.15;2.05;;;;;;;;;;4986020;28;20061;-65
2022/10/11 01:33:04;;;;;;;16.38;2.45;;;;;;;;;;4980542;28;20045;-64
2022/10/11 01:35:33;;;;;;;17.27;2.85;;;;;;;;;;4975705;28;20034;-65
2022/10/11 01:37:58;;;;;;;;;;;;;;;;;;4976936;28;20516;-66
2022/10/11 01:40:26;;;;;;;15.32;2.72;;;;;;;;;;4964191;28;19921;-67
2022/10/11 01:42:52;;;;;;;20.58;2.65;;;;;;;;;;4981379;28;20077;-66
2022/10/11 01:45:18;;;;;;;13.45;2.35;;;;;;;;;;4975141;28;20108;-63
2022/10/11 01:47:47;;;;;;;13.75;2.50;;;;;;;;;;4976312;28;20023;-66
2022/10/11 01:50:12;;;;;;;;;;;;;;;;;;4982246;28;20072;-65
2022/10/11 01:52:39;;;;;;;12.60;2.20;;;;;;;;;;4981546;28;20004;-64
2022/10/11 01:55:37;;;;;;;11.00;2.33;;;;;;;;;;4988064;28;20260;-66
2022/10/11 01:58:04;;;;;;;16.35;2.65;;;;;;;;;;4954749;28;20096;-64
2022/10/11 02:00:38;;;;;;;23.08;2.83;;;;;;;;;;4978392;28;20027;-66
2022/10/11 02:03:10;;;;;;;30.90;4.35;;;;;;;;;;4982342;28;20436;-65
2022/10/11 02:05:39;;;;;;;16.65;2.55;;;;;;;;;;4969425;28;20080;-65
2022/10/11 02:08:13;;;;;;;39.80;3.53;;;;;;;;;;4990096;28;20397;-65
2022/10/11 02:10:42;;;;;;;27.67;2.85;;;;;;;;;;4981875;28;20022;-64
2022/10/11 02:13:10;;;;;;;15.43;2.80;;;;;;;;;;4988339;28;20033;-64
2022/10/11 02:15:38;;;;;;;17.58;2.80;;;;;;;;;;4975614;28;20027;-64
2022/10/11 02:18:06;;;;;;;16.58;2.78;;;;;;;;;;4980797;28;20026;-65
2022/10/11 02:20:33;;;;;;;15.97;2.80;;;;;;;;;;4954607;28;20026;-65
2022/10/11 02:23:00;;;;;;;23.27;2.63;;;;;;;;;;4978580;28;20042;-64
2022/10/11 02:25:27;;;;;;;13.38;2.50;;;;;;;;;;4980925;28;20041;-65
2022/10/11 02:27:55;;;;;;;18.25;3.08;;;;;;;;;;4977562;28;20026;-67
2022/10/11 02:30:21;;;;;;;29.55;3.33;;;;;;;;;;4974956;28;20019;-65
2022/10/11 02:32:47;;;;;;;18.38;2.95;;;;;;;;;;4978595;28;20385;-65
2022/10/11 02:35:12;;;;;;;16.23;2.90;;;;;;;;;;4981198;28;20069;-66
2022/10/11 02:37:40;;;;;;;21.83;2.90;;;;;;;;;;4979359;28;20029;-66
2022/10/11 02:40:11;;;;;;;17.50;2.45;;;;;;;;;;4976897;28;20034;-65
2022/10/11 02:42:41;;;;;;;20.38;3.08;;;;;;;;;;4977150;28;20037;-64
2022/10/11 02:45:14;;;;;;;25.95;3.17;;;;;;;;;;4972778;28;20045;-63
2022/10/11 02:47:40;;;;;;;15.52;2.50;;;;;;;;;;4975472;28;20014;-63
2022/10/11 02:50:05;;;;;;;15.65;3.15;;;;;;;;;;4982303;28;20647;-64
2022/10/11 02:52:30;;;;;;;18.42;2.85;;;;;;;;;;4970217;28;20023;-64
2022/10/11 02:54:56;;;;;;;18.65;2.55;;;;;;;;;;4957930;28;20452;-67
2022/10/11 02:57:21;;;;;;;23.42;3.33;;;;;;;;;;4976144;28;20023;-64
2022/10/11 02:59:46;;;;;;;18.98;3.22;;;;;;;;;;4986727;28;20500;-66
2022/10/11 03:02:11;;;;;;;22.88;2.45;;;;;;;;;;4977328;28;20456;-65
2022/10/11 03:04:37;;;;;;;20.45;2.63;;;;;;;;;;4986925;28;20023;-67
2022/10/11 03:07:02;;;;;;;19.70;3.13;;;;;;;;;;4986372;28;20101;-64
2022/10/11 03:09:27;;;;;;;23.30;2.85;;;;;;;;;;4976386;28;20026;-65
2022/10/11 03:11:52;;;;;;;35.58;3.70;;;;;;;;;;4976118;28;20154;-66
2022/10/11 03:14:18;;;;;;;21.70;2.92;;;;;;;;;;4981786;28;20532;-64
2022/10/11 03:16:43;;;;;;;18.75;2.92;;;;;;;;;;4979624;28;20534;-65
2022/10/11 03:19:08;;;;;;;20.65;2.83;;;;;;;;;;4974583;28;20074;-67
2022/10/11 03:21:34;;;;;;;13.88;2.95;;;;;;;;;;4976965;28;20142;-64
2022/10/11 03:23:59;;;;;;;31.98;3.47;;;;;;;;;;4972188;28;20014;-64
2022/10/11 03:26:26;;;;;;;15.53;3.23;;;;;;;;;;4985718;28;20030;-66
2022/10/11 03:28:51;;;;;;;22.63;4.57;;;;;;;;;;4988343;28;20244;-66
2022/10/11 03:31:17;;;;;;;22.88;3.33;;;;;;;;;;4969684;28;20022;-63
2022/10/11 03:33:42;;;;;;;16.02;3.50;;;;;;;;;;4974404;28;20018;-66
2022/10/11 03:36:08;;;;;;;26.23;3.63;;;;;;;;;;4988008;28;20077;-65
2022/10/11 03:38:33;;;;;;;37.10;6.03;;;;;;;;;;4977839;28;20018;-65
2022/10/11 03:40:58;;;;;;;23.20;4.78;;;;;;;;;;4985067;28;20081;-64
2022/10/11 03:43:23;;;;;;;16.65;3.47;;;;;;;;;;4990674;28;20022;-66
2022/10/11 03:45:48;;;;;;;17.70;3.55;;;;;;;;;;4991115;28;20033;-65
2022/10/11 03:48:14;;;;;;;14.32;3.20;;;;;;;;;;4977859;28;20022;-65
2022/10/11 03:50:39;;;;;;;14.88;3.30;;;;;;;;;;4991377;28;20393;-65
2022/10/11 03:53:04;;;;;;;16.60;4.13;;;;;;;;;;4987520;28;20397;-64
2022/10/11 03:55:30;;;;;;;17.77;3.63;;;;;;;;;;4980282;28;20352;-64
2022/10/11 03:57:55;;;;;;;12.18;3.50;;;;;;;;;;4989604;28;20019;-65
2022/10/11 04:00:20;;;;;;;17.67;3.03;;;;;;;;;;4981095;28;20102;-65
2022/10/11 04:02:45;;;;;;;11.43;4.18;;;;;;;;;;4986750;28;20022;-64
2022/10/11 04:05:11;;;;;;;16.65;3.78;;;;;;;;;;4972609;28;20431;-65
2022/10/11 04:07:37;;;;;;;14.95;3.38;;;;;;;;;;4996086;28;20415;-63
2022/10/11 04:10:02;;;;;;;18.35;3.83;;;;;;;;;;4954770;28;20034;-65
2022/10/11 04:12:27;;;;;;;19.00;3.70;;;;;;;;;;4986481;28;20019;-64
2022/10/11 04:14:53;;;;;;;22.38;3.67;;;;;;;;;;4991220;28;20600;-66
2022/10/11 04:17:18;;;;;;;25.73;4.00;;;;;;;;;;4977087;28;20089;-68
2022/10/11 04:19:43;;;;;;;15.32;3.95;;;;;;;;;;4983211;28;20033;-66
2022/10/11 04:22:08;;;;;;;17.20;3.40;;;;;;;;;;4983004;28;20027;-65
2022/10/11 04:24:33;;;;;;;33.47;4.28;;;;;;;;;;4982310;28;20492;-64
2022/10/11 04:26:59;;;;;;;22.10;3.72;;;;;;;;;;4978865;28;20117;-64
2022/10/11 04:29:24;;;;;;;13.63;4.03;;;;;;;;;;4978420;28;20214;-66
2022/10/11 04:31:50;;;;;;;21.60;4.57;;;;;;;;;;4980337;28;20025;-66
2022/10/11 04:34:15;;;;;;;15.82;5.32;;;;;;;;;;4989617;28;20033;-68
2022/10/11 04:36:40;;;;;;;25.17;5.60;;;;;;;;;;4985485;28;20059;-67
2022/10/11 04:39:05;;;;;;;33.83;6.05;;;;;;;;;;4972002;28;20027;-64
2022/10/11 04:41:31;;;;;;;29.88;4.80;;;;;;;;;;4972327;28;20106;-68
2022/10/11 04:43:56;;;;;;;27.17;4.25;;;;;;;;;;4975934;28;20034;-65
2022/10/11 04:46:22;;;;;;;21.38;4.22;;;;;;;;;;4980221;28;20018;-68
2022/10/11 04:48:47;;;;;;;25.63;4.35;;;;;;;;;;4975653;28;20042;-67
2022/10/11 04:51:12;;;;;;;24.42;3.85;;;;;;;;;;4979333;28;20026;-65
2022/10/11 04:53:38;;;;;;;17.52;3.67;;;;;;;;;;4971067;28;20019;-65
2022/10/11 04:56:04;;;;;;;20.95;4.18;;;;;;;;;;4979992;28;20034;-65
2022/10/11 04:58:30;;;;;;;22.25;4.55;;;;;;;;;;4971767;28;20094;-65
2022/10/11 05:00:56;;;;;;;27.17;4.32;;;;;;;;;;4982963;28;20106;-66
2022/10/11 05:03:22;;;;;;;18.45;3.83;;;;;;;;;;4980161;28;20404;-68
2022/10/11 05:05:47;;;;;;;24.98;4.22;;;;;;;;;;4970756;28;20034;-67
2022/10/11 05:08:12;;;;;;;22.95;4.68;;;;;;;;;;4983880;28;20027;-66
2022/10/11 05:10:37;;;;;;;33.55;7.25;;;;;;;;;;4979100;28;20031;-66
2022/10/11 05:13:03;;;;;;;29.38;5.38;;;;;;;;;;4990872;28;20675;-64
2022/10/11 05:15:43;;;;;;;19.15;3.97;;;;;;;;;;4995967;28;20026;-75
2022/10/11 05:18:08;;;;;;;21.95;6.25;;;;;;;;;;4992942;28;20045;-68
2022/10/11 05:20:34;;;;;;;37.55;6.00;;;;;;;;;;4975906;28;20390;-67
2022/10/11 05:22:59;;;;;;;47.08;7.68;;;;;;;;;;4972919;28;20030;-67
2022/10/11 05:25:24;;;;;;;43.03;7.47;;;;;;;;;;4979533;28;20022;-66
2022/10/11 05:27:49;;;;;;;28.73;6.50;;;;;;;;;;4978349;28;20110;-68
2022/10/11 05:30:14;;;;;;;27.55;6.15;;;;;;;;;;4978210;28;20037;-69
2022/10/11 05:32:40;;;;;;;31.77;6.57;;;;;;;;;;4982170;28;20113;-69
2022/10/11 05:35:05;;;;;;;21.08;5.13;;;;;;;;;;4970852;28;20052;-67
2022/10/11 05:37:31;;;;;;;25.75;5.40;;;;;;;;;;4979658;28;20043;-68
2022/10/11 05:39:56;;;;;;;25.88;6.13;;;;;;;;;;4953657;28;20022;-68
2022/10/11 05:42:21;;;;;;;31.52;5.25;;;;;;;;;;4982213;28;20411;-67
2022/10/11 05:44:46;;;;;;;24.05;4.57;;;;;;;;;;4991302;28;20125;-67
2022/10/11 05:47:12;;;;;;;26.42;5.00;;;;;;;;;;4990410;28;20037;-67
2022/10/11 05:49:37;;;;;;;50.75;4.97;;;;;;;;;;4989816;28;20408;-68
2022/10/11 05:52:02;;;;;;;19.77;4.65;;;;;;;;;;4980694;28;20366;-66
2022/10/11 05:54:28;;;;;;;18.02;5.10;;;;;;;;;;4983864;28;20026;-68
2022/10/11 05:56:54;;;;;;;27.30;4.70;;;;;;;;;;4980698;28;20130;-68
2022/10/11 05:59:19;;;;;;;30.52;4.90;;;;;;;;;;4976441;28;20373;-68
2022/10/11 06:01:44;;;;;;;32.70;4.75;;;;;;;;;;4968477;28;20026;-68
2022/10/11 06:04:10;;;;;;;44.78;5.47;;;;;;;;;;4990119;28;20029;-66
2022/10/11 06:06:35;;;;;;;26.38;5.85;;;;;;;;;;4982760;28;20030;-67
2022/10/11 06:09:01;;;;;;;41.15;5.07;;;;;;;;;;4979929;28;20026;-66
2022/10/11 06:11:26;;;;;;;47.15;6.00;;;;;;;;;;4980787;28;20046;-71
2022/10/11 06:13:53;;;;;;;31.60;5.47;;;;;;;;;;4984853;28;20062;-66
2022/10/11 06:16:18;;;;;;;40.85;7.03;;;;;;;;;;4953467;28;20018;-67
2022/10/11 06:18:43;;;;;;;37.50;7.32;;;;;;;;;;4974515;28;20038;-66
2022/10/11 06:21:09;;;;;;;22.40;6.18;;;;;;;;;;4990434;28;20513;-70
2022/10/11 06:23:34;;;;;;;23.35;5.18;;;;;;;;;;4977213;28;20026;-67
2022/10/11 06:26:06;;;;;;;35.42;6.55;;;;;;;;;;4989646;28;20153;-65
2022/10/11 06:28:32;;;;;;;29.08;5.88;;;;;;;;;;4977858;28;20026;-67
2022/10/11 06:30:58;;;;;;;24.00;6.22;;;;;;;;;;4981703;28;20037;-66
2022/10/11 06:33:23;;;;;;;25.30;7.72;;;;;;;;;;4983875;28;20018;-67
2022/10/11 06:35:49;;;;;;;18.55;5.18;;;;;;;;;;4977790;28;20516;-68
2022/10/11 06:38:14;;;;;;;24.20;6.28;;;;;;;;;;4976742;28;20429;-68
2022/10/11 06:40:39;;;;;;;36.28;6.00;;;;;;;;;;4989625;28;20112;-68
2022/10/11 06:43:04;;;;;;;25.33;5.65;;;;;;;;;;4977143;28;20161;-69
2022/10/11 06:45:30;;;;;;;31.45;6.18;;;;;;;;;;4989942;28;20038;-70
2022/10/11 06:47:55;;;;;;;38.28;6.25;;;;;;;;;;4976722;28;20172;-67
2022/10/11 06:50:20;;;;;;;24.75;5.07;;;;;;;;;;4990060;28;20125;-68
2022/10/11 06:52:46;;;;;;;36.70;5.18;;;;;;;;;;4990289;28;20088;-67
2022/10/11 06:55:11;;;;;;;23.50;4.75;;;;;;;;;;4983066;28;20019;-66
2022/10/11 06:57:37;;;;;;;31.20;4.78;;;;;;;;;;4978517;28;20481;-69
2022/10/11 07:00:03;;;;;;;33.20;6.57;;;;;;;;;;4971753;28;20178;-68
2022/10/11 07:02:28;;;;;;;25.60;4.47;;;;;;;;;;4976576;28;20608;-68
2022/10/11 07:04:53;;;;;;;28.48;4.88;;;;;;;;;;4990496;28;20109;-67
2022/10/11 07:07:18;;;;;;;17.45;4.05;;;;;;;;;;4978955;28;20030;-69
2022/10/11 07:09:43;;;;;;;22.73;4.68;;;;;;;;;;4977164;28;20433;-68
2022/10/11 07:12:09;;;;;;;21.90;3.95;;;;;;;;;;4979891;28;20027;-69
2022/10/11 07:14:34;;;;;;;29.58;5.10;;;;;;;;;;4993715;28;20066;-69
2022/10/11 07:16:59;;;;;;;28.67;4.32;;;;;;;;;;4977730;28;20042;-66
2022/10/11 07:19:24;;;;;;;29.30;4.03;;;;;;;;;;4993234;28;20088;-69
2022/10/11 07:21:50;;;;;;;27.42;4.70;;;;;;;;;;4979837;28;20449;-67
2022/10/11 07:24:15;;;;;;;20.75;4.00;;;;;;;;;;4979629;28;20018;-68
2022/10/11 07:26:41;;;;;;;31.80;4.18;;;;;;;;;;4979950;28;20011;-70
2022/10/11 07:29:07;;;;;;;24.02;4.15;;;;;;;;;;4992169;28;20026;-66
2022/10/11 07:31:32;;;;;;;23.95;4.57;;;;;;;;;;4992725;28;20065;-66
2022/10/11 07:34:00;;;;;;;19.95;3.80;;;;;;;;;;4980006;28;20042;-68
2022/10/11 07:36:26;;;;;;;23.45;4.22;;;;;;;;;;4980074;28;20102;-69
2022/10/11 07:38:51;;;;;;;19.92;3.95;;;;;;;;;;4979387;28;20118;-67
2022/10/11 07:41:16;;;;;;;35.30;6.45;;;;;;;;;;4992813;28;20595;-70
2022/10/11 07:43:42;;;;;;;35.40;4.07;;;;;;;;;;4986547;28;20029;-70
2022/10/11 07:46:08;;;;;;;24.85;4.78;;;;;;;;;;4985117;28;20038;-68
2022/10/11 07:48:34;;;;;;;26.15;4.63;;;;;;;;;;4979246;28;20022;-68
2022/10/11 07:51:03;;;;;;;31.85;6.95;;;;;;;;;;4980631;28;20053;-67
2022/10/11 07:53:28;;;;;;;22.08;4.65;;;;;;;;;;4986042;28;20149;-69
2022/10/11 07:55:53;;;;;;;26.45;3.50;;;;;;;;;;4985448;28;20508;-68
2022/10/11 07:58:19;;;;;;;20.73;3.92;;;;;;;;;;4978970;28;20018;-67
2022/10/11 08:00:44;;;;;;;21.27;3.77;;;;;;;;;;4982453;28;20034;-69
2022/10/11 08:03:10;;;;;;;23.67;4.05;;;;;;;;;;4986139;28;20746;-67
2022/10/11 08:05:36;;;;;;;28.63;3.38;;;;;;;;;;4986038;28;20175;-68
2022/10/11 08:08:01;;;;;;;43.90;4.15;;;;;;;;;;4997273;28;20120;-66
2022/10/11 08:10:26;;;;;;;30.55;4.22;;;;;;;;;;4993110;28;20015;-66
2022/10/11 08:12:55;;;;;;;28.40;3.03;;;;;;;;;;4991701;28;20018;-68
2022/10/11 08:15:20;;;;;;;46.07;4.40;;;;;;;;;;4997661;28;20022;-68
2022/10/11 08:17:45;;;;;;;28.73;2.85;;;;;;;;;;4990839;28;20355;-66
2022/10/11 08:20:11;;;;;;;32.72;3.35;;;;;;;;;;4992128;28;20042;-66
2022/10/11 08:22:36;;;;;;;20.20;2.83;;;;;;;;;;4996210;28;20028;-69
2022/10/11 08:25:02;;;;;;;22.85;3.47;;;;;;;;;;4976178;28;20041;-67
2022/10/11 08:27:27;;;;;;;21.90;3.30;;;;;;;;;;4990839;28;20022;-67
2022/10/11 08:29:52;;;;;;;17.45;2.42;;;;;;;;;;4993380;28;20038;-68
2022/10/11 08:32:17;;;;;;;17.65;2.80;;;;;;;;;;4992864;28;20054;-66
2022/10/11 08:34:43;;;;;;;24.30;2.85;;;;;;;;;;4995025;28;20589;-67
2022/10/11 08:37:08;;;;;;;21.02;2.85;;;;;;;;;;4990618;28;20022;-66
2022/10/11 08:39:33;;;;;;;13.48;2.58;;;;;;;;;;4993745;28;20014;-68
2022/10/11 08:42:04;;;;;;;29.33;3.85;;;;;;;;;;4995409;28;20022;-67
2022/10/11 08:44:44;;;;;;;20.85;2.45;;;;;;;;;;4993486;28;20514;-70
2022/10/11 08:47:20;;;;;;;21.25;2.90;;;;;;;;;;4993029;28;20026;-67
2022/10/11 08:49:46;;;;;;;22.88;2.33;;;;;;;;;;4977540;28;20026;-69
2022/10/11 08:52:20;;;;;;;35.58;4.43;;;;;;;;;;4996677;28;20055;-67
2022/10/11 08:54:53;;;;;;;25.38;3.28;;;;;;;;;;4989357;28;20673;-68
2022/10/11 08:57:19;;;;;;;35.28;3.22;;;;;;;;;;4997377;28;20061;-66
2022/10/11 09:00:17;;;;;;;22.65;2.72;;;;;;;;;;4989369;28;20573;-69
2022/10/11 09:03:17;;;;;;;27.55;3.58;;;;;;;;;;4937591;28;20054;-69
2022/10/11 09:06:03;;;;;;;17.58;2.97;;;;;;;;;;4912086;29;20028;-67
2022/10/11 09:08:34;;;;;;;24.58;2.22;;;;;;;;;;4987427;28;20061;-68
2022/10/11 09:10:59;;;;;;;22.02;2.83;;;;;;;;;;4988792;28;20125;-67
2022/10/11 09:13:40;;;;;;;29.48;3.15;;;;;;;;;;4997872;28;20045;-67
2022/10/11 09:16:26;;;;;;;23.10;3.55;;;;;;;;;;4973864;28;20029;-68
2022/10/11 09:19:01;;;;;;;20.83;2.75;;;;;;;;;;4990733;28;20034;-69
2022/10/11 09:21:53;;;;;;;29.45;3.28;;;;;;;;;;4993703;28;20447;-68
2022/10/11 09:24:32;;;;;;;21.08;3.15;;;;;;;;;;4954835;28;20064;-65
2022/10/11 09:27:03;;;;;;;24.58;2.78;;;;;;;;;;4990434;28;20177;-67
2022/10/11 09:29:47;;;;;;;18.55;2.95;;;;;;;;;;4990562;28;20165;-66
2022/10/11 09:32:14;;;;;;;19.42;2.22;;;;;;;;;;4995421;28;20365;-67
2022/10/11 09:34:40;;;;;;;17.10;2.17;;;;;;;;;;4973887;28;20026;-67
2022/10/11 09:37:23;;;;;;;23.88;2.97;;;;;;;;;;4975445;28;20041;-66
2022/10/11 09:40:01;;;;;;;23.65;4.13;;;;;;;;;;4989674;28;20385;-67
2022/10/11 09:42:26;;;;;;;14.80;2.20;;;;;;;;;;4989500;28;20449;-66
2022/10/11 09:44:51;;;;;;;22.45;2.90;;;;;;;;;;4993186;28;20069;-67
2022/10/11 09:47:18;;;;;;;31.50;4.20;;;;;;;;;;4992045;28;20038;-68
2022/10/11 09:49:47;;;;;;;29.35;2.47;;;;;;;;;;4994526;28;20034;-67
2022/10/11 09:52:18;;;;;;;26.48;3.10;;;;;;;;;;4996122;28;20030;-66
2022/10/11 09:54:45;;;;;;;21.08;3.47;;;;;;;;;;4977344;28;20026;-66
2022/10/11 09:57:36;;;;;;;18.60;2.08;;;;;;;;;;4990819;28;20017;-71
2022/10/11 10:00:17;;;;;;;22.25;2.45;;;;;;;;;;4986721;28;20026;-68
2022/10/11 10:02:50;;;;;;;21.27;2.85;;;;;;;;;;4992507;28;20030;-69
2022/10/11 10:05:15;;;;;;;24.55;2.17;;;;;;;;;;4996594;28;20034;-70
2022/10/11 10:07:56;;;;;;;20.73;2.55;;;;;;;;;;4989332;28;20027;-66
2022/10/11 10:10:25;;;;;;;24.85;2.42;;;;;;;;;;4995127;28;20105;-66
2022/10/11 10:12:58;;;;;;;18.25;3.88;;;;;;;;;;4988750;28;20121;-67
2022/10/11 10:15:25;;;;;;;15.13;2.65;;;;;;;;;;4973020;28;20397;-66
2022/10/11 10:17:51;;;;;;;22.33;2.65;;;;;;;;;;4990679;28;20052;-67
2022/10/11 10:20:23;;;;;;;25.35;3.22;;;;;;;;;;4988479;28;20056;-68
2022/10/11 10:22:49;;;;;;;18.15;2.15;;;;;;;;;;4991727;28;20080;-68
2022/10/11 10:25:28;;;;;;;27.42;2.40;;;;;;;;;;4991676;28;20089;-65
2022/10/11 10:27:58;;;;;;;16.55;2.20;;;;;;;;;;4989449;28;20062;-69
2022/10/11 10:30:24;;;;;;;23.17;3.03;;;;;;;;;;4992839;28;20079;-68
2022/10/11 10:32:55;;;;;;;13.32;2.20;;;;;;;;;;4975952;28;20137;-68
2022/10/11 10:35:25;;;;;;;29.20;3.00;;;;;;;;;;4972759;28;20688;-67
2022/10/11 10:38:10;;;;;;;16.77;2.92;;;;;;;;;;4996126;28;20023;-68
2022/10/11 10:40:44;;;;;;;18.67;2.45;;;;;;;;;;4987701;28;20034;-69
2022/10/11 10:43:16;;;;;;;17.92;2.22;;;;;;;;;;4988636;28;20026;-66
2022/10/11 10:45:48;;;;;;;14.98;2.25;;;;;;;;;;4988302;28;20069;-67
2022/10/11 10:48:16;;;;;;;17.35;1.80;;;;;;;;;;4993997;28;20419;-65
2022/10/11 10:51:16;;;;;;;19.10;2.50;;;;;;;;;;4998357;28;20022;-66
2022/10/11 10:53:47;;;;;;;13.40;1.83;;;;;;;;;;4914559;29;20031;-68
2022/10/11 10:56:12;;;;;;;13.63;1.85;;;;;;;;;;4978140;28;20072;-68
2022/10/11 10:58:43;;;;;;;12.17;1.93;;;;;;;;;;4995473;28;20045;-68
2022/10/11 11:01:08;;;;;;;22.17;2.15;;;;;;;;;;4996772;28;20264;-67
2022/10/11 11:03:45;;;;;;;17.77;2.33;;;;;;;;;;4998701;28;20076;-67
2022/10/11 11:06:19;;;;;;;19.95;2.15;;;;;;;;;;4978147;28;20030;-67
2022/10/11 11:08:47;;;;;;;16.65;2.22;;;;;;;;;;4995997;28;20080;-67
2022/10/11 11:11:19;;;;;;;17.58;1.60;;;;;;;;;;4996324;28;20033;-66
2022/10/11 11:13:44;;;;;;;12.30;1.52;;;;;;;;;;5000009;28;20058;-67
2022/10/11 11:16:10;;;;;;;25.35;2.63;;;;;;;;;;4991789;28;20077;-68
2022/10/11 11:18:41;;;;;;;16.13;2.20;;;;;;;;;;4995548;28;20448;-67
2022/10/11 11:21:06;;;;;;;17.20;2.15;;;;;;;;;;4992344;28;20073;-67
2022/10/11 11:23:31;;;;;;;9.47;1.77;;;;;;;;;;4996594;28;20507;-68
2022/10/11 11:26:11;;;;;;;18.02;2.15;;;;;;;;;;4997537;28;20351;-67
2022/10/11 11:28:39;;;;;;;22.83;1.67;;;;;;;;;;4991365;28;20040;-68
2022/10/11 11:31:34;;;;;;;11.00;1.75;;;;;;;;;;4994152;28;20026;-67
2022/10/11 11:34:03;;;;;;;32.20;2.78;;;;;;;;;;4974296;28;20407;-67
2022/10/11 11:36:37;;;;;;;10.48;1.60;;;;;;;;;;4990961;28;20062;-66
2022/10/11 11:39:04;;;;;;;20.38;2.08;;;;;;;;;;4993599;28;20644;-68
2022/10/11 11:41:34;;;;;;;18.15;2.00;;;;;;;;;;4992290;28;20488;-69
2022/10/11 11:44:15;;;;;;;29.15;2.35;;;;;;;;;;4965476;28;20018;-68
2022/10/11 11:46:43;;;;;;;14.52;1.70;;;;;;;;;;4979835;28;20024;-69
2022/10/11 11:49:34;;;;;;;11.68;1.85;;;;;;;;;;4983123;28;20035;-68
2022/10/11 11:52:00;;;;;;;12.55;1.30;;;;;;;;;;4975896;28;20034;-67
2022/10/11 11:54:33;;;;;;;11.77;2.28;;;;;;;;;;4979242;28;20030;-69
2022/10/11 11:57:17;;;;;;;25.55;2.13;;;;;;;;;;4982601;28;20027;-66
2022/10/11 11:59:48;;;;;;;25.40;2.58;;;;;;;;;;4993672;28;20019;-67
2022/10/11 12:02:20;;;;;;;14.15;2.63;;;;;;;;;;4965093;28;20146;-69
2022/10/11 12:04:47;;;;;;;10.93;1.77;;;;;;;;;;4955919;28;20023;-70
2022/10/11 12:07:13;;;;;;;21.23;2.20;;;;;;;;;;4992619;28;20014;-68
2022/10/11 12:09:40;;;;;;;16.90;1.40;;;;;;;;;;4980410;28;20492;-67
2022/10/11 12:12:24;;;;;;;15.02;1.90;;;;;;;;;;4982073;28;20053;-65
2022/10/11 12:14:50;;;;;;;12.10;2.42;;;;;;;;;;4991610;28;20026;-67
2022/10/11 12:17:16;;;;;;;12.15;1.85;;;;;;;;;;4993137;28;20096;-68
2022/10/11 12:19:56;;;;;;;23.98;2.05;;;;;;;;;;4985420;28;20481;-69
2022/10/11 12:22:27;;;;;;;12.30;1.88;;;;;;;;;;4990571;28;20022;-69
2022/10/11 12:24:57;;;;;;;20.15;2.42;;;;;;;;;;4981789;28;20034;-67
2022/10/11 12:27:34;;;;;;;19.58;1.90;;;;;;;;;;4986926;28;20031;-66
2022/10/11 12:30:02;;;;;;;16.77;2.42;;;;;;;;;;4987146;28;20030;-66
2022/10/11 12:32:33;;;;;;;17.63;2.40;;;;;;;;;;4981228;28;20022;-67
2022/10/11 12:35:28;;;;;;;15.80;2.42;;;;;;;;;;4981342;28;20011;-67
2022/10/11 12:38:01;;;;;;;17.10;2.03;;;;;;;;;;4956653;28;20066;-68
2022/10/11 12:40:53;;;;;;;8.25;1.13;;;;;;;;;;4993283;28;20030;-68
2022/10/11 12:43:23;;;;;;;17.15;1.40;;;;;;;;;;4986391;28;20049;-67
2022/10/11 12:45:48;;;;;;;12.25;1.30;;;;;;;;;;4984394;28;20026;-66
2022/10/11 12:48:33;;;;;;;13.18;1.65;;;;;;;;;;4972124;28;20385;-68
2022/10/11 12:50:58;;;;;;;13.32;2.03;;;;;;;;;;4986067;28;20567;-69
2022/10/11 12:53:23;;;;;;;11.93;1.88;;;;;;;;;;4987848;28;20051;-68
2022/10/11 12:55:59;;;;;;;10.90;1.80;;;;;;;;;;4955821;28;20118;-68
2022/10/11 12:58:28;;;;;;;9.52;1.77;;;;;;;;;;4973111;28;20682;-67
2022/10/11 13:00:54;;;;;;;17.90;1.60;;;;;;;;;;4988278;28;20156;-66
2022/10/11 13:03:38;;;;;;;15.07;1.85;;;;;;;;;;4985932;28;20027;-67
2022/10/11 13:06:11;;;;;;;21.20;2.13;;;;;;;;;;4989268;28;20019;-67
2022/10/11 13:08:38;;;;;;;13.30;2.17;;;;;;;;;;4988385;28;20110;-66
2022/10/11 13:11:05;;;;;;;14.57;2.30;;;;;;;;;;4986995;28;20027;-68
2022/10/11 13:13:48;;;;;;;12.35;1.40;;;;;;;;;;4984490;28;20128;-68
2022/10/11 13:16:18;;;;;;;23.45;2.00;;;;;;;;;;4992168;28;20022;-69
2022/10/11 13:18:45;;;;;;;14.98;2.05;;;;;;;;;;4979697;28;20023;-70
2022/10/11 13:21:25;;;;;;;10.90;1.35;;;;;;;;;;4992417;28;20022;-66
2022/10/11 13:23:53;;;;;;;15.20;1.63;;;;;;;;;;4958881;28;20067;-66
2022/10/11 13:26:19;;;;;;;8.90;1.70;;;;;;;;;;4982461;28;20022;-68
2022/10/11 13:28:45;;;;;;;17.63;2.88;;;;;;;;;;4983018;28;20022;-68
2022/10/11 13:31:10;;;;;;;13.70;2.72;;;;;;;;;;4975324;28;20019;-67
2022/10/11 13:33:38;;;;;;;16.25;2.63;;;;;;;;;;4978714;28;20451;-70
2022/10/11 13:36:04;;;;;;;16.70;1.65;;;;;;;;;;4982441;28;20428;-68
2022/10/11 13:38:34;;;;;;;15.35;2.42;;;;;;;;;;4991722;28;20058;-66
2022/10/11 13:41:01;;;;;;;19.13;1.80;;;;;;;;;;4982023;28;20031;-67
2022/10/11 13:43:28;;;;;;;9.85;1.30;;;;;;;;;;4985572;28;20074;-68
2022/10/11 13:45:54;;;;;;;12.75;1.55;;;;;;;;;;4983424;28;20108;-67
2022/10/11 13:48:20;;;;;;;12.45;2.10;;;;;;;;;;4978844;28;20045;-68
2022/10/11 13:51:03;;;;;;;33.17;2.67;;;;;;;;;;4981528;28;20469;-69
2022/10/11 13:53:28;;;;;;;19.50;2.28;;;;;;;;;;4985331;28;20505;-69
2022/10/11 13:55:56;;;;;;;14.07;1.80;;;;;;;;;;4985698;28;20030;-68
2022/10/11 13:58:30;;;;;;;12.52;1.63;;;;;;;;;;4978215;28;20244;-70
2022/10/11 14:00:56;;;;;;;11.30;1.58;;;;;;;;;;4961489;28;20417;-69
2022/10/11 14:03:23;;;;;;;20.52;2.20;;;;;;;;;;4976083;28;20026;-69
2022/10/11 14:05:58;;;;;;;14.90;3.47;;;;;;;;;;4978233;28;20126;-69
2022/10/11 14:08:36;;;;;;;8.85;1.48;;;;;;;;;;4982867;28;20026;-70
2022/10/11 14:11:01;;;;;;;19.38;2.22;;;;;;;;;;4988712;28;20024;-66
2022/10/11 14:13:37;;;;;;;9.77;1.48;;;;;;;;;;4980874;28;20023;-66
2022/10/11 14:16:08;;;;;;;9.82;2.00;;;;;;;;;;4984923;28;20026;-66
2022/10/11 14:18:41;;;;;;;24.83;1.58;;;;;;;;;;4971516;28;20125;-69
2022/10/11 14:21:19;;;;;;;11.32;1.50;;;;;;;;;;4979470;28;20025;-66
2022/10/11 14:24:04;;;;;;;17.35;1.80;;;;;;;;;;4986113;28;20025;-67
2022/10/11 14:26:32;;;;;;;13.65;2.17;;;;;;;;;;4977563;28;20116;-70
2022/10/11 14:28:58;;;;;;;12.30;1.95;;;;;;;;;;4986669;28;20038;-67
2022/10/11 14:31:24;;;;;;;8.82;1.67;;;;;;;;;;4971472;28;20023;-67
2022/10/11 14:33:49;;;;;;;21.02;2.00;;;;;;;;;;4989830;28;20026;-68
2022/10/11 14:36:14;;;;;;;14.45;1.65;;;;;;;;;;4979627;28;20091;-66
2022/10/11 14:38:39;;;;;;;9.82;1.35;;;;;;;;;;4983987;28;20468;-67
2022/10/11 14:41:05;;;;;;;11.05;1.90;;;;;;;;;;4978911;28;20026;-69